createdAt,value
2023-02-13T00:01:25.990Z,85.20
2023-02-13T00:03:54.654Z,85.45
2023-02-13T00:06:23.703Z,85.16
2023-02-13T00:08:53.932Z,84.47
2023-02-13T00:11:22.099Z,84.08
2023-02-13T00:13:50.419Z,83.34
2023-02-13T00:16:18.672Z,83.09
2023-02-13T00:18:46.909Z,84.10
2023-02-13T00:21:15.647Z,83.58
2023-02-13T00:23:44.181Z,85.12
2023-02-13T00:26:17.346Z,85.13
2023-02-13T00:28:48.178Z,85.24
2023-02-13T00:31:21.900Z,84.77
2023-02-13T00:33:50.631Z,84.86
2023-02-13T00:36:21.175Z,84.96
2023-02-13T00:38:50.408Z,85.23
2023-02-13T00:41:18.852Z,85.72
2023-02-13T00:43:48.065Z,85.51
2023-02-13T00:46:17.870Z,83.40
2023-02-13T00:48:46.564Z,83.70
2023-02-13T00:51:14.795Z,83.41
2023-02-13T00:53:43.137Z,83.18
2023-02-13T00:56:11.326Z,83.56
2023-02-13T00:58:39.736Z,83.28
2023-02-13T01:01:07.949Z,82.73
2023-02-13T01:03:38.645Z,82.72
2023-02-13T01:06:08.076Z,83.42
2023-02-13T01:08:39.426Z,83.50
2023-02-13T01:11:07.823Z,82.66
2023-02-13T01:13:37.310Z,83.37
2023-02-13T01:16:05.804Z,83.98
2023-02-13T01:18:33.997Z,84.13
2023-02-13T01:21:06.014Z,83.41
2023-02-13T01:23:36.951Z,83.83
2023-02-13T01:26:06.779Z,83.83
2023-02-13T01:28:35.408Z,82.02
2023-02-13T01:31:03.892Z,82.40
2023-02-13T01:33:32.741Z,83.43
2023-02-13T01:36:06.560Z,84.23
2023-02-13T01:38:34.965Z,82.80
2023-02-13T01:41:03.263Z,83.43
2023-02-13T01:43:55.229Z,83.44
2023-02-13T01:46:43.348Z,83.88
2023-02-13T01:49:25.674Z,82.67
2023-02-13T01:51:56.673Z,83.38
2023-02-13T01:54:31.408Z,82.24
2023-02-13T01:57:18.808Z,84.37
2023-02-13T01:59:51.900Z,84.49
2023-02-13T02:02:21.775Z,85.10
2023-02-13T02:04:51.458Z,85.28
2023-02-13T02:07:26.620Z,85.18
2023-02-13T02:10:08.727Z,84.46
2023-02-13T02:12:43.048Z,84.63
2023-02-13T02:15:12.505Z,85.00
2023-02-13T02:17:40.894Z,84.79
2023-02-13T02:20:32.411Z,83.18
2023-02-13T02:23:21.828Z,83.60
2023-02-13T02:26:19.236Z,83.37
2023-02-13T02:29:15.611Z,82.17
2023-02-13T02:32:09.029Z,83.17
2023-02-13T02:34:52.037Z,82.96
2023-02-13T02:37:39.150Z,83.47
2023-02-13T02:40:19.337Z,83.38
2023-02-13T02:43:12.281Z,83.68
2023-02-13T02:46:09.749Z,83.87
2023-02-13T02:49:06.277Z,83.80
2023-02-13T02:51:54.464Z,83.79
2023-02-13T02:54:49.635Z,83.14
2023-02-13T02:57:26.685Z,83.28
2023-02-13T03:00:25.738Z,83.09
2023-02-13T03:03:13.385Z,83.14
2023-02-13T03:06:06.056Z,82.91
2023-02-13T03:08:58.998Z,83.35
2023-02-13T03:12:00.669Z,83.08
2023-02-13T03:14:36.934Z,83.80
2023-02-13T03:17:27.626Z,83.66
2023-02-13T03:20:59.039Z,83.38
2023-02-13T03:23:39.092Z,83.32
2023-02-13T03:26:45.619Z,83.27
2023-02-13T03:29:56.488Z,83.68
2023-02-13T03:32:42.375Z,83.36
2023-02-13T03:35:54.368Z,83.40
2023-02-13T03:38:32.754Z,83.91
2023-02-13T03:41:19.377Z,83.83
2023-02-13T03:44:08.551Z,83.75
2023-02-13T03:46:42.127Z,83.72
2023-02-13T03:50:11.793Z,83.89
2023-02-13T03:53:10.601Z,83.45
2023-02-13T03:56:06.183Z,83.22
2023-02-13T03:58:59.872Z,82.54
2023-02-13T04:01:34.840Z,82.33
2023-02-13T04:04:22.537Z,82.10
2023-02-13T04:07:10.884Z,81.89
2023-02-13T04:09:43.017Z,81.51
2023-02-13T04:12:24.004Z,81.38
2023-02-13T04:15:04.834Z,81.49
2023-02-13T04:17:39.082Z,81.71
2023-02-13T04:20:11.028Z,82.04
2023-02-13T04:22:47.050Z,82.31
2023-02-13T04:25:17.768Z,82.09
2023-02-13T04:27:46.843Z,81.82
2023-02-13T04:30:20.366Z,81.37
2023-02-13T04:32:51.906Z,81.08
2023-02-13T04:35:23.344Z,81.45
2023-02-13T04:37:51.881Z,82.37
2023-02-13T04:40:25.833Z,82.50
2023-02-13T04:42:56.716Z,82.12
2023-02-13T04:45:25.221Z,82.80
2023-02-13T04:47:56.912Z,83.49
2023-02-13T04:50:34.218Z,83.41
2023-02-13T04:53:08.007Z,83.53
2023-02-13T04:55:36.542Z,83.70
2023-02-13T04:58:07.498Z,83.54
2023-02-13T05:00:38.318Z,83.83
2023-02-13T05:03:09.027Z,83.76
2023-02-13T05:05:40.707Z,83.64
2023-02-13T05:08:15.749Z,83.72
2023-02-13T05:10:49.911Z,83.43
2023-02-13T05:13:23.948Z,83.98
2023-02-13T05:15:56.068Z,84.20
2023-02-13T05:18:24.842Z,84.11
2023-02-13T05:21:12.044Z,83.95
2023-02-13T05:23:43.747Z,83.68
2023-02-13T05:26:14.830Z,83.27
2023-02-13T05:29:02.064Z,83.42
2023-02-13T05:31:33.837Z,83.62
2023-02-13T05:34:05.917Z,83.25
2023-02-13T05:36:37.217Z,83.55
2023-02-13T05:39:06.154Z,83.73
2023-02-13T05:41:40.008Z,83.54
2023-02-13T05:44:12.186Z,83.17
2023-02-13T05:46:49.754Z,83.44
2023-02-13T05:49:22.974Z,83.61
2023-02-13T05:51:53.770Z,83.81
2023-02-13T05:54:22.192Z,83.90
2023-02-13T05:56:50.701Z,83.98
2023-02-13T05:59:24.109Z,84.14
2023-02-13T06:01:55.576Z,84.14
2023-02-13T06:04:30.114Z,83.72
2023-02-13T06:07:01.105Z,83.54
2023-02-13T06:09:31.744Z,83.07
2023-02-13T06:12:02.866Z,83.00
2023-02-13T06:14:33.564Z,82.82
2023-02-13T06:17:08.232Z,82.53
2023-02-13T06:19:36.868Z,82.32
2023-02-13T06:22:08.436Z,82.14
2023-02-13T06:24:47.848Z,82.13
2023-02-13T06:27:16.116Z,82.12
2023-02-13T06:29:49.571Z,82.18
2023-02-13T06:32:20.176Z,82.33
2023-02-13T06:34:48.322Z,82.33
2023-02-13T06:37:19.621Z,82.57
2023-02-13T06:39:51.272Z,83.13
2023-02-13T06:42:22.868Z,83.12
2023-02-13T06:44:56.681Z,83.28
2023-02-13T06:47:33.890Z,83.18
2023-02-13T06:50:20.237Z,82.59
2023-02-13T06:52:57.638Z,83.38
2023-02-13T06:55:26.080Z,83.51
2023-02-13T06:57:57.943Z,83.99
2023-02-13T07:00:29.532Z,83.53
2023-02-13T07:03:07.219Z,83.71
2023-02-13T07:05:39.513Z,83.62
2023-02-13T07:08:11.552Z,84.14
2023-02-13T07:10:42.053Z,83.90
2023-02-13T07:13:15.717Z,83.96
2023-02-13T07:15:49.855Z,84.31
2023-02-13T07:18:21.311Z,84.00
2023-02-13T07:20:51.869Z,83.82
2023-02-13T07:23:23.262Z,83.77
2023-02-13T07:25:51.779Z,83.43
2023-02-13T07:28:23.403Z,84.00
2023-02-13T07:30:56.429Z,83.76
2023-02-13T07:33:27.619Z,83.41
2023-02-13T07:35:56.236Z,83.86
2023-02-13T07:38:24.776Z,84.05
2023-02-13T07:40:53.451Z,83.43
2023-02-13T07:43:25.127Z,83.18
2023-02-13T07:46:13.185Z,84.09
2023-02-13T07:48:47.244Z,83.18
2023-02-13T07:51:16.570Z,83.00
2023-02-13T07:53:47.669Z,84.21
2023-02-13T07:56:21.171Z,84.49
2023-02-13T07:58:52.161Z,84.13
2023-02-13T08:01:23.347Z,84.20
2023-02-13T08:03:52.030Z,83.22
2023-02-13T08:06:26.140Z,84.15
2023-02-13T08:09:14.467Z,84.86
2023-02-13T08:11:59.554Z,85.09
2023-02-13T08:14:32.996Z,85.08
2023-02-13T08:17:02.244Z,84.90
2023-02-13T08:19:30.673Z,84.85
2023-02-13T08:22:01.692Z,85.02
2023-02-13T08:24:32.515Z,85.10
2023-02-13T08:27:00.749Z,84.89
2023-02-13T08:29:37.302Z,84.98
2023-02-13T08:32:07.211Z,84.86
2023-02-13T08:34:35.835Z,84.19
2023-02-13T08:37:11.769Z,83.98
2023-02-13T08:39:44.038Z,84.26
2023-02-13T08:42:16.386Z,83.87
2023-02-13T08:44:47.607Z,82.56
2023-02-13T08:47:18.937Z,83.42
2023-02-13T08:49:50.636Z,83.78
2023-02-13T08:52:22.558Z,83.57
2023-02-13T08:54:50.754Z,82.42
2023-02-13T08:57:21.321Z,82.06
2023-02-13T08:59:55.859Z,82.69
2023-02-13T09:02:24.662Z,82.81
2023-02-13T09:04:53.406Z,82.07
2023-02-13T09:07:28.973Z,82.01
2023-02-13T09:09:57.555Z,82.13
2023-02-13T09:12:26.340Z,81.42
2023-02-13T09:14:56.998Z,81.72
2023-02-13T09:17:25.416Z,81.85
2023-02-13T09:19:53.876Z,82.09
2023-02-13T09:22:25.070Z,82.16
2023-02-13T09:24:53.418Z,82.26
2023-02-13T09:27:21.669Z,82.50
2023-02-13T09:29:53.157Z,82.55
2023-02-13T09:32:24.846Z,82.73
2023-02-13T09:35:06.584Z,82.77
2023-02-13T09:37:41.399Z,82.54
2023-02-13T09:40:42.497Z,82.54
2023-02-13T09:43:25.333Z,81.57
2023-02-13T09:46:11.977Z,80.68
2023-02-13T09:48:46.087Z,79.82
2023-02-13T09:51:19.564Z,78.12
2023-02-13T09:53:55.735Z,79.24
2023-02-13T09:57:07.558Z,77.85
2023-02-13T10:00:18.625Z,76.92
2023-02-13T10:03:24.176Z,77.81
2023-02-13T10:06:15.000Z,78.20
2023-02-13T10:09:08.062Z,78.36
2023-02-13T10:12:33.231Z,78.18
2023-02-13T10:15:53.844Z,77.30
2023-02-13T10:18:37.842Z,77.63
2023-02-13T10:21:24.599Z,77.59
2023-02-13T10:24:10.397Z,77.64
2023-02-13T10:26:49.962Z,77.76
2023-02-13T10:29:54.269Z,75.76
2023-02-13T10:32:32.686Z,75.35
2023-02-13T10:35:04.343Z,76.82
2023-02-13T10:37:32.665Z,74.44
2023-02-13T10:40:01.882Z,75.36
2023-02-13T10:43:00.552Z,75.37
2023-02-13T10:46:14.796Z,75.68
2023-02-13T10:48:57.419Z,74.82
2023-02-13T10:52:01.068Z,75.24
2023-02-13T10:55:01.522Z,74.95
2023-02-13T10:58:09.877Z,74.01
2023-02-13T11:01:08.502Z,72.53
2023-02-13T11:03:42.463Z,74.36
2023-02-13T11:06:24.421Z,73.05
2023-02-13T11:08:55.904Z,73.07
2023-02-13T11:11:33.390Z,73.90
2023-02-13T11:14:26.192Z,72.66
2023-02-13T11:16:59.026Z,72.58
2023-02-13T11:19:28.018Z,71.90
2023-02-13T11:22:11.619Z,71.68
2023-02-13T11:24:42.823Z,68.33
2023-02-13T11:27:14.013Z,70.63
2023-02-13T11:29:53.348Z,69.73
2023-02-13T11:32:26.454Z,67.58
2023-02-13T11:34:55.639Z,68.85
2023-02-13T11:37:29.777Z,66.10
2023-02-13T11:40:00.377Z,67.48
2023-02-13T11:42:32.793Z,67.98
2023-02-13T11:45:20.534Z,66.66
2023-02-13T11:47:52.211Z,67.20
2023-02-13T11:50:23.822Z,66.93
2023-02-13T11:53:25.597Z,68.58
2023-02-13T11:56:20.615Z,68.16
2023-02-13T11:59:01.784Z,67.29
2023-02-13T12:01:30.723Z,65.80
2023-02-13T12:04:18.806Z,66.35
2023-02-13T12:07:15.362Z,66.43
2023-02-13T12:09:47.720Z,66.13
2023-02-13T12:12:29.394Z,67.07
2023-02-13T12:14:58.469Z,62.80
2023-02-13T12:17:32.068Z,65.32
2023-02-13T12:20:04.510Z,59.79
2023-02-13T12:22:45.519Z,58.93
2023-02-13T12:25:43.248Z,59.50
2023-02-13T12:28:28.679Z,60.82
2023-02-13T12:31:26.941Z,60.21
2023-02-13T12:34:50.593Z,55.81
2023-02-13T12:37:35.025Z,54.58
2023-02-13T12:40:15.726Z,55.24
2023-02-13T12:43:04.703Z,53.58
2023-02-13T12:45:43.456Z,58.34
2023-02-13T12:48:36.483Z,54.11
2023-02-13T12:51:44.634Z,55.15
2023-02-13T12:54:34.782Z,54.17
2023-02-13T12:57:24.273Z,52.34
2023-02-13T13:00:14.020Z,55.67
2023-02-13T13:03:31.098Z,56.74
2023-02-13T13:06:43.017Z,51.14
2023-02-13T13:09:23.998Z,51.32
2023-02-13T13:11:52.690Z,54.01
2023-02-13T13:14:29.792Z,50.58
2023-02-13T13:17:31.968Z,49.07
2023-02-13T13:20:46.200Z,51.99
2023-02-13T13:23:49.862Z,50.97
2023-02-13T13:26:38.829Z,49.54
2023-02-13T13:29:17.530Z,49.65
2023-02-13T13:32:02.618Z,48.71
2023-02-13T13:34:40.437Z,47.95
2023-02-13T13:37:21.090Z,49.09
2023-02-13T13:40:24.636Z,48.55
2023-02-13T13:43:08.270Z,49.84
2023-02-13T13:46:15.244Z,49.27
2023-02-13T13:48:59.481Z,48.88
2023-02-13T13:51:33.487Z,49.66
2023-02-13T13:54:22.965Z,50.92
2023-02-13T13:57:11.883Z,49.62
2023-02-13T13:59:51.610Z,49.75
2023-02-13T14:02:40.881Z,49.93
2023-02-13T14:05:43.278Z,50.90
2023-02-13T14:08:56.135Z,50.04
2023-02-13T14:11:39.403Z,48.82
2023-02-13T14:14:50.613Z,49.21
2023-02-13T14:18:12.075Z,50.32
2023-02-13T14:21:08.226Z,51.99
2023-02-13T14:24:04.130Z,51.74
2023-02-13T14:26:45.626Z,51.88
2023-02-13T14:29:40.197Z,51.27
2023-02-13T14:32:40.859Z,52.35
2023-02-13T14:35:24.892Z,52.71
2023-02-13T14:38:07.369Z,51.32
2023-02-13T14:40:54.292Z,51.72
2023-02-13T14:43:34.000Z,51.61
2023-02-13T14:46:35.998Z,52.37
2023-02-13T14:49:22.187Z,51.61
2023-02-13T14:51:55.841Z,51.95
2023-02-13T14:54:36.948Z,51.65
2023-02-13T14:57:25.086Z,53.43
2023-02-13T15:00:09.245Z,52.20
2023-02-13T15:02:46.926Z,52.46
2023-02-13T15:05:22.269Z,52.47
2023-02-13T15:08:18.014Z,52.41
2023-02-13T15:10:49.574Z,53.23
2023-02-13T15:13:42.505Z,52.99
2023-02-13T15:16:14.503Z,53.72
2023-02-13T15:18:47.462Z,53.15
2023-02-13T15:21:33.053Z,53.30
2023-02-13T15:24:03.777Z,54.03
2023-02-13T15:26:35.623Z,54.81
2023-02-13T15:29:17.423Z,54.75
2023-02-13T15:31:53.115Z,54.81
2023-02-13T15:34:36.162Z,55.07
2023-02-13T15:37:04.573Z,55.38
2023-02-13T15:39:32.892Z,55.61
2023-02-13T15:42:04.082Z,55.85
2023-02-13T15:44:38.620Z,56.16
2023-02-13T15:47:26.041Z,56.46
2023-02-13T15:49:54.645Z,56.85
2023-02-13T15:52:36.922Z,57.11
2023-02-13T15:55:05.712Z,57.65
2023-02-13T15:57:34.650Z,58.40
2023-02-13T16:00:18.715Z,58.79
2023-02-13T16:02:48.242Z,59.46
2023-02-13T16:05:38.331Z,59.46
2023-02-13T16:08:36.212Z,60.33
2023-02-13T16:11:28.756Z,60.26
2023-02-13T16:14:03.080Z,61.04
2023-02-13T16:16:36.730Z,61.30
2023-02-13T16:19:05.261Z,61.53
2023-02-13T16:21:35.980Z,61.73
2023-02-13T16:24:07.777Z,62.16
2023-02-13T16:26:39.231Z,62.51
2023-02-13T16:29:17.545Z,62.98
2023-02-13T16:31:46.746Z,63.62
2023-02-13T16:34:22.010Z,64.06
2023-02-13T16:36:53.759Z,64.24
2023-02-13T16:39:31.304Z,64.89
2023-02-13T16:42:01.573Z,65.32
2023-02-13T16:44:35.391Z,64.14
2023-02-13T16:47:06.280Z,61.88
2023-02-13T16:49:36.958Z,62.76
2023-02-13T16:52:15.019Z,63.92
2023-02-13T16:54:54.920Z,65.25
2023-02-13T16:57:34.614Z,66.25
2023-02-13T17:00:08.685Z,66.44
2023-02-13T17:02:41.704Z,67.35
2023-02-13T17:05:09.897Z,67.56
2023-02-13T17:07:41.714Z,67.69
2023-02-13T17:10:18.986Z,68.00
2023-02-13T17:12:47.888Z,68.26
2023-02-13T17:15:24.888Z,68.76
2023-02-13T17:17:59.876Z,69.17
2023-02-13T17:20:31.474Z,69.53
2023-02-13T17:23:02.579Z,69.33
2023-02-13T17:25:33.502Z,69.85
2023-02-13T17:28:14.350Z,69.80
2023-02-13T17:30:50.168Z,70.10
2023-02-13T17:33:23.416Z,70.13
2023-02-13T17:35:54.476Z,70.49
2023-02-13T17:38:25.778Z,70.73
2023-02-13T17:40:57.298Z,71.44
2023-02-13T17:43:30.085Z,71.56
2023-02-13T17:46:01.438Z,71.76
2023-02-13T17:48:34.858Z,70.97
2023-02-13T17:51:04.078Z,70.90
2023-02-13T17:53:39.942Z,71.62
2023-02-13T17:56:08.226Z,72.07
2023-02-13T17:58:39.426Z,72.05
2023-02-13T18:01:13.106Z,72.05
2023-02-13T18:03:41.432Z,73.11
2023-02-13T18:06:15.924Z,73.08
2023-02-13T18:08:47.613Z,73.09
2023-02-13T18:11:26.314Z,73.34
2023-02-13T18:13:54.431Z,73.57
2023-02-13T18:16:25.299Z,74.43
2023-02-13T18:18:56.471Z,74.86
2023-02-13T18:21:33.599Z,74.86
2023-02-13T18:24:10.980Z,73.92
2023-02-13T18:26:45.227Z,74.54
2023-02-13T18:29:26.476Z,74.71
2023-02-13T18:32:08.087Z,72.13
2023-02-13T18:34:40.458Z,73.71
2023-02-13T18:37:14.621Z,73.48
2023-02-13T18:39:43.068Z,75.53
2023-02-13T18:42:13.814Z,73.28
2023-02-13T18:44:44.999Z,73.43
2023-02-13T18:47:17.741Z,73.90
2023-02-13T18:49:52.212Z,74.19
2023-02-13T18:52:20.550Z,72.95
2023-02-13T18:54:49.328Z,72.01
2023-02-13T18:57:17.611Z,72.79
2023-02-13T18:59:45.997Z,73.50
2023-02-13T19:02:16.907Z,73.88
2023-02-13T19:04:45.189Z,74.86
2023-02-13T19:07:13.533Z,74.74
2023-02-13T19:09:42.048Z,74.48
2023-02-13T19:12:10.287Z,75.54
2023-02-13T19:14:39.508Z,75.55
2023-02-13T19:17:09.526Z,75.50
2023-02-13T19:19:38.209Z,75.90
2023-02-13T19:22:06.422Z,76.09
2023-02-13T19:24:34.950Z,76.16
2023-02-13T19:27:03.215Z,76.18
2023-02-13T19:29:33.980Z,76.52
2023-02-13T19:32:02.386Z,75.86
2023-02-13T19:34:31.085Z,77.09
2023-02-13T19:36:59.333Z,76.86
2023-02-13T19:39:27.650Z,77.60
2023-02-13T19:41:56.078Z,77.11
2023-02-13T19:44:24.306Z,77.81
2023-02-13T19:46:55.023Z,77.92
2023-02-13T19:49:23.267Z,78.34
2023-02-13T19:51:54.365Z,77.46
2023-02-13T19:54:22.757Z,77.20
2023-02-13T19:56:51.328Z,76.84
2023-02-13T19:59:22.161Z,77.49
2023-02-13T20:01:50.567Z,77.58
2023-02-13T20:04:19.124Z,77.66
2023-02-13T20:06:49.246Z,77.84
2023-02-13T20:09:17.351Z,78.65
2023-02-13T20:11:45.587Z,78.63
2023-02-13T20:14:15.199Z,78.05
2023-02-13T20:16:45.754Z,78.42
2023-02-13T20:19:14.220Z,77.99
2023-02-13T20:21:43.498Z,77.84
2023-02-13T20:24:12.404Z,78.38
2023-02-13T20:26:41.751Z,79.60
2023-02-13T20:29:09.963Z,79.78
2023-02-13T20:31:41.420Z,79.92
2023-02-13T20:34:13.212Z,79.33
2023-02-13T20:36:41.476Z,77.70
2023-02-13T20:39:14.070Z,77.92
2023-02-13T20:41:42.618Z,78.95
2023-02-13T20:44:13.366Z,79.29
2023-02-13T20:46:41.751Z,79.99
2023-02-13T20:49:12.083Z,80.37
2023-02-13T20:51:42.723Z,80.09
2023-02-13T20:54:13.446Z,80.31
2023-02-13T20:56:46.088Z,80.84
2023-02-13T20:59:14.203Z,80.96
2023-02-13T21:01:44.078Z,80.49
2023-02-13T21:04:14.779Z,80.77
2023-02-13T21:06:46.579Z,80.99
2023-02-13T21:09:18.279Z,80.80
2023-02-13T21:11:49.565Z,80.63
2023-02-13T21:14:20.361Z,80.13
2023-02-13T21:16:48.579Z,79.93
2023-02-13T21:19:21.316Z,79.57
2023-02-13T21:21:49.611Z,80.08
2023-02-13T21:24:21.230Z,80.62
2023-02-13T21:26:52.575Z,79.43
2023-02-13T21:29:21.135Z,79.10
2023-02-13T21:31:53.176Z,78.13
2023-02-13T21:34:21.445Z,80.20
2023-02-13T21:36:49.794Z,80.90
2023-02-13T21:39:20.470Z,80.25
2023-02-13T21:41:48.970Z,79.19
2023-02-13T21:44:20.464Z,79.94
2023-02-13T21:46:48.839Z,80.97
2023-02-13T21:49:18.586Z,80.72
2023-02-13T21:51:52.246Z,79.25
2023-02-13T21:54:23.643Z,80.61
2023-02-13T21:56:59.229Z,80.25
2023-02-13T21:59:30.881Z,79.81
2023-02-13T22:02:03.989Z,79.17
2023-02-13T22:04:37.920Z,79.44
2023-02-13T22:07:11.000Z,80.42
2023-02-13T22:09:39.363Z,80.50
2023-02-13T22:12:07.641Z,80.53
2023-02-13T22:14:44.477Z,81.52
2023-02-13T22:17:22.324Z,81.64
2023-02-13T22:19:52.904Z,81.58
2023-02-13T22:22:21.066Z,82.13
2023-02-13T22:24:49.200Z,81.66
2023-02-13T22:27:17.706Z,81.67
2023-02-13T22:29:45.857Z,82.18
2023-02-13T22:32:14.360Z,82.37
2023-02-13T22:34:43.011Z,81.99
2023-02-13T22:37:12.713Z,81.46
2023-02-13T22:39:40.922Z,79.36
2023-02-13T22:42:09.193Z,81.41
2023-02-13T22:44:37.532Z,82.25
2023-02-13T22:47:07.274Z,82.89
2023-02-13T22:49:36.149Z,82.17
2023-02-13T22:52:04.913Z,83.21
2023-02-13T22:54:35.397Z,82.16
2023-02-13T22:57:04.281Z,82.99
2023-02-13T22:59:38.715Z,81.81
2023-02-13T23:02:08.461Z,80.56
2023-02-13T23:04:36.795Z,81.48
2023-02-13T23:07:05.021Z,80.87
2023-02-13T23:09:33.242Z,80.26
2023-02-13T23:12:20.316Z,81.06
2023-02-13T23:14:51.662Z,79.96
2023-02-13T23:17:38.480Z,80.64
2023-02-13T23:20:08.152Z,79.37
2023-02-13T23:22:36.444Z,80.41
2023-02-13T23:25:06.155Z,81.19
2023-02-13T23:27:35.441Z,82.57
2023-02-13T23:30:08.425Z,82.50
2023-02-13T23:32:36.900Z,81.58
2023-02-13T23:35:05.321Z,81.69
2023-02-13T23:37:36.669Z,81.69
2023-02-13T23:40:09.689Z,81.38
2023-02-13T23:42:38.105Z,80.61
2023-02-13T23:45:09.795Z,80.09
2023-02-13T23:47:38.269Z,80.23
2023-02-13T23:50:07.396Z,80.54
2023-02-13T23:52:36.091Z,80.39
2023-02-13T23:55:05.064Z,80.24
2023-02-13T23:57:33.349Z,80.19
